Time;durP1;ratioP1;P1;durP2;ratioP2;P2;SDS_P1;SDS_P2;PMS_P1;PMS_P2;Temp;Humidity;BMP_temperature;BMP_pressure;BME280_temperature;BME280_humidity;BME280_pressure;Samples;Min_cycle;Max_cycle;Signal;HPM_P1;HPM_P2
2022/05/15 00:00:41;;;;;;;8.40;3.90;;;;;;;;;;5040385;28;20284;-80
2022/05/15 00:03:12;;;;;;;5.35;2.88;;;;;;;;;;5038869;28;20195;-80
2022/05/15 00:05:39;;;;;;;3.72;2.40;;;;;;;;;;5042569;28;20218;-79
2022/05/15 00:08:08;;;;;;;6.28;2.95;;;;;;;;;;5036528;28;20647;-79
2022/05/15 00:10:35;;;;;;;6.47;3.10;;;;;;;;;;5036380;28;20209;-78
2022/05/15 00:13:02;;;;;;;3.65;2.70;;;;;;;;;;5041569;28;20195;-78
2022/05/15 00:15:30;;;;;;;7.57;4.10;;;;;;;;;;5034167;28;20195;-78
2022/05/15 00:17:59;;;;;;;10.55;3.83;;;;;;;;;;5036829;28;20596;-78
2022/05/15 00:20:26;;;;;;;10.02;3.50;;;;;;;;;;5035207;28;20663;-79
2022/05/15 00:22:53;;;;;;;7.82;3.00;;;;;;;;;;5039005;28;20693;-78
2022/05/15 00:25:20;;;;;;;5.75;2.97;;;;;;;;;;5038472;28;20618;-79
2022/05/15 00:27:48;;;;;;;8.25;3.55;;;;;;;;;;5034256;28;20576;-78
2022/05/15 00:30:15;;;;;;;9.85;3.63;;;;;;;;;;5040327;28;20199;-78
2022/05/15 00:32:43;;;;;;;13.63;4.05;;;;;;;;;;5050762;28;20203;-78
2022/05/15 00:35:12;;;;;;;6.50;3.03;;;;;;;;;;5040586;28;20643;-79
2022/05/15 00:37:39;;;;;;;7.93;3.65;;;;;;;;;;5047310;28;20199;-78
2022/05/15 00:40:07;;;;;;;5.78;2.95;;;;;;;;;;5043352;28;20195;-79
2022/05/15 00:42:35;;;;;;;8.35;3.30;;;;;;;;;;5040558;28;20570;-78
2022/05/15 00:45:02;;;;;;;3.90;3.30;;;;;;;;;;5041673;28;20236;-79
2022/05/15 00:47:29;;;;;;;9.18;3.08;;;;;;;;;;5047707;28;20646;-79
2022/05/15 00:49:57;;;;;;;7.45;2.97;;;;;;;;;;5048827;28;20199;-78
2022/05/15 00:52:28;;;;;;;4.40;3.50;;;;;;;;;;5034414;28;20215;-78
2022/05/15 00:54:57;;;;;;;13.23;3.38;;;;;;;;;;5045583;28;20196;-78
2022/05/15 00:57:28;;;;;;;4.93;3.03;;;;;;;;;;5050297;28;20670;-78
2022/05/15 00:59:58;;;;;;;5.50;2.30;;;;;;;;;;5040395;28;20230;-78
2022/05/15 01:02:27;;;;;;;9.40;3.30;;;;;;;;;;5042814;28;20290;-78
2022/05/15 01:04:54;;;;;;;4.95;3.00;;;;;;;;;;5050975;28;20199;-79
2022/05/15 01:07:21;;;;;;;8.25;5.10;;;;;;;;;;5049963;28;20187;-78
2022/05/15 01:09:51;;;;;;;8.23;4.05;;;;;;;;;;5043056;28;20199;-78
2022/05/15 01:12:18;;;;;;;9.63;3.05;;;;;;;;;;5050053;28;20282;-79
2022/05/15 01:14:47;;;;;;;7.15;3.15;;;;;;;;;;5051376;28;20219;-80
2022/05/15 01:17:14;;;;;;;10.82;3.50;;;;;;;;;;5049005;28;20661;-79
2022/05/15 01:19:43;;;;;;;13.52;3.45;;;;;;;;;;5049098;28;20207;-79
2022/05/15 01:22:15;;;;;;;6.28;2.50;;;;;;;;;;5045941;28;20203;-79
2022/05/15 01:24:42;;;;;;;9.57;3.70;;;;;;;;;;5034919;28;20544;-79
2022/05/15 01:27:10;;;;;;;11.70;3.58;;;;;;;;;;5042716;28;20221;-79
2022/05/15 01:29:39;;;;;;;7.25;3.75;;;;;;;;;;5050845;28;20213;-79
2022/05/15 01:32:06;;;;;;;10.05;2.90;;;;;;;;;;5045913;28;20195;-80
2022/05/15 01:34:34;;;;;;;13.90;3.70;;;;;;;;;;5049063;28;20214;-81
2022/05/15 01:37:01;;;;;;;4.90;2.70;;;;;;;;;;5040839;28;20511;-78
2022/05/15 01:39:29;;;;;;;7.55;3.40;;;;;;;;;;5047291;28;20199;-81
2022/05/15 01:41:57;;;;;;;8.63;3.28;;;;;;;;;;5045269;28;20227;-79
2022/05/15 01:44:24;;;;;;;6.07;2.85;;;;;;;;;;5038491;28;20218;-79
2022/05/15 01:46:51;;;;;;;11.07;4.07;;;;;;;;;;5037949;28;20223;-81
2022/05/15 01:49:19;;;;;;;5.85;3.95;;;;;;;;;;5037314;28;20207;-81
2022/05/15 01:51:46;;;;;;;11.40;3.85;;;;;;;;;;5037262;28;20205;-81
2022/05/15 01:54:14;;;;;;;6.82;3.78;;;;;;;;;;5038395;28;20222;-79
2022/05/15 01:56:43;;;;;;;4.85;2.47;;;;;;;;;;5042754;28;20204;-80
2022/05/15 01:59:10;;;;;;;6.32;3.42;;;;;;;;;;5042900;28;20199;-80
2022/05/15 02:01:38;;;;;;;4.03;3.03;;;;;;;;;;5049672;28;20202;-80
2022/05/15 02:04:07;;;;;;;6.22;3.10;;;;;;;;;;5053121;28;20202;-79
2022/05/15 02:06:34;;;;;;;7.00;3.10;;;;;;;;;;5040248;28;20346;-80
2022/05/15 02:09:01;;;;;;;6.95;3.00;;;;;;;;;;5038918;28;20214;-81
2022/05/15 02:11:28;;;;;;;8.32;3.08;;;;;;;;;;5041113;28;20663;-81
2022/05/15 02:13:57;;;;;;;12.45;3.75;;;;;;;;;;5038493;28;20294;-79
2022/05/15 02:16:24;;;;;;;4.72;2.45;;;;;;;;;;5043275;28;20203;-82
2022/05/15 02:18:51;;;;;;;8.00;2.85;;;;;;;;;;5038019;28;20192;-81
2022/05/15 02:21:18;;;;;;;7.35;4.28;;;;;;;;;;5040752;28;20206;-81
2022/05/15 02:23:46;;;;;;;3.90;2.65;;;;;;;;;;5043378;28;20214;-82
2022/05/15 02:26:13;;;;;;;13.02;3.90;;;;;;;;;;5036027;28;20215;-81
2022/05/15 02:28:40;;;;;;;6.47;3.20;;;;;;;;;;5044817;28;20195;-81
2022/05/15 02:31:09;;;;;;;5.68;3.20;;;;;;;;;;5052829;28;20203;-82
2022/05/15 02:33:36;;;;;;;4.53;3.00;;;;;;;;;;5044271;28;20950;-81
2022/05/15 02:36:04;;;;;;;6.50;3.83;;;;;;;;;;5040570;28;20202;-81
2022/05/15 02:38:31;;;;;;;4.40;2.35;;;;;;;;;;5043635;28;20210;-80
2022/05/15 02:40:58;;;;;;;7.82;3.60;;;;;;;;;;5042175;28;20199;-80
2022/05/15 02:43:25;;;;;;;5.10;2.80;;;;;;;;;;5038271;28;20203;-80
2022/05/15 02:45:52;;;;;;;5.75;3.10;;;;;;;;;;5038390;28;20685;-77
2022/05/15 02:51:05;;;;;;;6.60;3.33;;;;;;;;;;5038814;28;20246;-80
2022/05/15 02:53:33;;;;;;;7.68;3.83;;;;;;;;;;5043063;28;20634;-80
2022/05/15 02:56:01;;;;;;;5.05;2.60;;;;;;;;;;5038889;28;20198;-79
2022/05/15 02:58:28;;;;;;;5.32;2.97;;;;;;;;;;5040461;28;20216;-80
2022/05/15 03:00:56;;;;;;;7.90;3.20;;;;;;;;;;5037237;28;20511;-80
2022/05/15 03:03:25;;;;;;;4.85;3.08;;;;;;;;;;5037918;28;20194;-80
2022/05/15 03:05:52;;;;;;;6.43;3.17;;;;;;;;;;5037100;28;20224;-80
2022/05/15 03:08:19;;;;;;;6.03;3.17;;;;;;;;;;5038694;28;20214;-80
2022/05/15 03:10:46;;;;;;;9.60;3.88;;;;;;;;;;5037861;28;20214;-80
2022/05/15 03:13:13;;;;;;;7.05;3.75;;;;;;;;;;5037989;28;20202;-80
2022/05/15 03:15:40;;;;;;;5.38;3.03;;;;;;;;;;5039869;28;20217;-80
2022/05/15 03:18:08;;;;;;;9.80;4.28;;;;;;;;;;5045870;28;21681;-80
2022/05/15 03:20:36;;;;;;;6.40;3.40;;;;;;;;;;5038236;28;20550;-80
2022/05/15 03:23:03;;;;;;;5.03;3.60;;;;;;;;;;5037935;28;20207;-79
2022/05/15 03:25:32;;;;;;;7.85;3.03;;;;;;;;;;5039195;28;20693;-80
2022/05/15 03:28:00;;;;;;;5.78;3.45;;;;;;;;;;5043507;28;20210;-79
2022/05/15 03:30:27;;;;;;;9.27;3.80;;;;;;;;;;5047583;28;20677;-79
2022/05/15 03:32:54;;;;;;;5.88;3.55;;;;;;;;;;5046390;28;20200;-79
2022/05/15 03:35:21;;;;;;;7.88;3.22;;;;;;;;;;5039844;28;20213;-79
2022/05/15 03:37:50;;;;;;;7.60;3.70;;;;;;;;;;5038062;28;20206;-79
2022/05/15 03:40:17;;;;;;;6.03;3.42;;;;;;;;;;5035887;28;20194;-80
2022/05/15 03:42:44;;;;;;;4.57;3.05;;;;;;;;;;5038558;28;20225;-79
2022/05/15 03:45:12;;;;;;;6.75;3.22;;;;;;;;;;5037370;28;20908;-79
2022/05/15 03:47:45;;;;;;;6.63;3.22;;;;;;;;;;5036243;28;20252;-80
2022/05/15 03:50:12;;;;;;;6.38;3.22;;;;;;;;;;5035327;28;20201;-80
2022/05/15 03:52:39;;;;;;;5.80;3.63;;;;;;;;;;5036850;28;20200;-79
2022/05/15 03:55:09;;;;;;;8.02;2.92;;;;;;;;;;5047154;28;20207;-79
2022/05/15 03:57:36;;;;;;;6.32;3.75;;;;;;;;;;5038924;28;20202;-79
2022/05/15 04:00:04;;;;;;;10.27;3.60;;;;;;;;;;5036753;28;20198;-80
2022/05/15 04:02:31;;;;;;;6.40;3.80;;;;;;;;;;5046496;28;20198;-79
2022/05/15 04:04:58;;;;;;;7.13;3.40;;;;;;;;;;5041922;28;20203;-79
2022/05/15 04:07:25;;;;;;;5.60;2.95;;;;;;;;;;5037051;28;20218;-79
2022/05/15 04:09:52;;;;;;;5.75;3.33;;;;;;;;;;5037695;28;20206;-79
2022/05/15 04:12:21;;;;;;;6.15;3.85;;;;;;;;;;5032025;28;20209;-79
2022/05/15 04:14:48;;;;;;;6.22;4.20;;;;;;;;;;5041041;28;20198;-79
2022/05/15 04:17:15;;;;;;;7.45;3.70;;;;;;;;;;5035411;28;20199;-79
2022/05/15 04:19:42;;;;;;;8.18;3.78;;;;;;;;;;5037863;28;20197;-79
2022/05/15 04:22:09;;;;;;;7.60;3.20;;;;;;;;;;5037446;28;20221;-80
2022/05/15 04:24:37;;;;;;;5.90;3.45;;;;;;;;;;5037977;28;20683;-80
2022/05/15 04:27:04;;;;;;;5.97;3.20;;;;;;;;;;5043174;28;20224;-79
2022/05/15 04:29:33;;;;;;;4.45;3.03;;;;;;;;;;5037354;28;20210;-80
2022/05/15 04:32:00;;;;;;;6.40;3.15;;;;;;;;;;5035545;28;20196;-79
2022/05/15 04:34:28;;;;;;;5.32;3.30;;;;;;;;;;5037914;28;20208;-79
2022/05/15 04:36:55;;;;;;;7.57;3.70;;;;;;;;;;5035630;28;20200;-79
2022/05/15 04:39:23;;;;;;;5.80;3.90;;;;;;;;;;5037813;28;20202;-79
2022/05/15 04:41:50;;;;;;;7.38;3.97;;;;;;;;;;5033310;28;20241;-79
2022/05/15 04:44:17;;;;;;;6.15;2.97;;;;;;;;;;5041538;28;20199;-79
2022/05/15 04:46:45;;;;;;;11.45;5.45;;;;;;;;;;5035163;28;20225;-79
2022/05/15 04:49:13;;;;;;;6.03;3.45;;;;;;;;;;5036694;28;20219;-80
2022/05/15 04:51:40;;;;;;;4.70;3.90;;;;;;;;;;5033422;28;20556;-80
2022/05/15 04:54:07;;;;;;;6.95;3.55;;;;;;;;;;5039134;28;20201;-80
2022/05/15 04:56:34;;;;;;;9.70;4.07;;;;;;;;;;5041683;28;20199;-80
2022/05/15 04:59:01;;;;;;;7.93;3.42;;;;;;;;;;5038082;28;20206;-80
2022/05/15 05:01:28;;;;;;;11.82;3.83;;;;;;;;;;5033209;28;20199;-80
2022/05/15 05:03:58;;;;;;;4.10;3.05;;;;;;;;;;5042904;28;20646;-79
2022/05/15 05:06:25;;;;;;;5.78;3.67;;;;;;;;;;5035143;28;21256;-80
2022/05/15 05:08:53;;;;;;;6.28;4.00;;;;;;;;;;5037534;28;22100;-79
2022/05/15 05:11:20;;;;;;;7.35;4.25;;;;;;;;;;5037641;28;20208;-80
2022/05/15 05:13:47;;;;;;;10.15;4.00;;;;;;;;;;5040197;28;20206;-80
2022/05/15 05:16:14;;;;;;;9.82;3.88;;;;;;;;;;5037670;28;20675;-80
2022/05/15 05:18:42;;;;;;;5.32;3.30;;;;;;;;;;5034885;28;20658;-80
2022/05/15 05:21:10;;;;;;;5.45;3.85;;;;;;;;;;5038259;28;20201;-79
2022/05/15 05:23:37;;;;;;;9.18;4.88;;;;;;;;;;5038913;28;20210;-80
2022/05/15 05:26:04;;;;;;;5.97;3.40;;;;;;;;;;5037093;28;20206;-79
2022/05/15 05:28:32;;;;;;;6.72;3.70;;;;;;;;;;5037711;28;20695;-80
2022/05/15 05:30:59;;;;;;;4.60;3.10;;;;;;;;;;5037373;28;20214;-81
2022/05/15 05:33:26;;;;;;;6.53;4.00;;;;;;;;;;5033562;28;20194;-80
2022/05/15 05:35:54;;;;;;;7.55;3.67;;;;;;;;;;5037398;28;20201;-79
2022/05/15 05:38:22;;;;;;;8.75;3.38;;;;;;;;;;5034232;28;20241;-79
2022/05/15 05:40:49;;;;;;;5.93;3.20;;;;;;;;;;5038636;28;20213;-79
2022/05/15 05:43:16;;;;;;;6.25;3.70;;;;;;;;;;5039349;28;20206;-80
2022/05/15 05:45:43;;;;;;;5.90;3.42;;;;;;;;;;5035305;28;20195;-79
2022/05/15 05:48:11;;;;;;;3.08;2.67;;;;;;;;;;5039902;28;20591;-80
2022/05/15 05:50:38;;;;;;;4.78;3.33;;;;;;;;;;5060006;28;20199;-80
2022/05/15 05:53:05;;;;;;;7.85;3.28;;;;;;;;;;5050241;28;20196;-79
2022/05/15 05:55:34;;;;;;;6.80;3.25;;;;;;;;;;5043475;28;20206;-79
2022/05/15 05:58:02;;;;;;;3.92;2.80;;;;;;;;;;5034338;28;20685;-80
2022/05/15 06:00:31;;;;;;;5.85;2.90;;;;;;;;;;5038313;28;20298;-82
2022/05/15 06:05:39;;;;;;;6.03;3.00;;;;;;;;;;5033320;28;20229;-81
2022/05/15 06:08:06;;;;;;;4.55;2.97;;;;;;;;;;5034439;28;20218;-80
2022/05/15 06:10:35;;;;;;;5.90;2.80;;;;;;;;;;5035712;28;20216;-80
2022/05/15 06:13:02;;;;;;;4.60;2.50;;;;;;;;;;5035995;28;20199;-80
2022/05/15 06:15:29;;;;;;;5.68;2.65;;;;;;;;;;5038968;28;20263;-79
2022/05/15 06:17:59;;;;;;;3.97;2.65;;;;;;;;;;5039517;28;20777;-79
2022/05/15 06:20:26;;;;;;;3.53;2.45;;;;;;;;;;5042882;28;20271;-80
2022/05/15 06:22:53;;;;;;;6.30;2.83;;;;;;;;;;5037965;28;20203;-81
2022/05/15 06:25:20;;;;;;;4.80;3.15;;;;;;;;;;5041541;28;20213;-80
2022/05/15 06:27:49;;;;;;;2.95;2.38;;;;;;;;;;5040074;28;20215;-81
2022/05/15 06:30:17;;;;;;;8.77;3.75;;;;;;;;;;5037973;28;20226;-80
2022/05/15 06:32:44;;;;;;;4.82;2.72;;;;;;;;;;5038270;28;20199;-80
2022/05/15 06:35:12;;;;;;;3.22;2.58;;;;;;;;;;5046797;28;20646;-80
2022/05/15 06:37:40;;;;;;;5.65;3.83;;;;;;;;;;5043824;28;20206;-80
2022/05/15 06:40:09;;;;;;;4.90;2.63;;;;;;;;;;5041617;28;20195;-80
2022/05/15 06:42:36;;;;;;;8.50;2.22;;;;;;;;;;5046719;28;20211;-80
2022/05/15 06:45:05;;;;;;;6.10;2.50;;;;;;;;;;5040741;28;20207;-80
2022/05/15 06:47:32;;;;;;;4.82;2.83;;;;;;;;;;5040309;28;20233;-80
2022/05/15 06:50:00;;;;;;;5.28;2.63;;;;;;;;;;5038801;28;20566;-80
2022/05/15 06:52:27;;;;;;;4.53;3.15;;;;;;;;;;5040342;28;20197;-80
2022/05/15 06:54:54;;;;;;;5.13;2.65;;;;;;;;;;5043307;28;20199;-80
2022/05/15 06:57:31;;;;;;;3.92;3.20;;;;;;;;;;5050952;28;20202;-80
2022/05/15 06:59:58;;;;;;;4.70;2.30;;;;;;;;;;5052050;28;20290;-81
2022/05/15 07:02:27;;;;;;;8.63;3.00;;;;;;;;;;5039803;28;20210;-80
2022/05/15 07:04:54;;;;;;;3.78;2.60;;;;;;;;;;5035734;28;20214;-80
2022/05/15 07:07:21;;;;;;;4.05;2.72;;;;;;;;;;5039648;28;20215;-80
2022/05/15 07:09:48;;;;;;;3.78;2.90;;;;;;;;;;5038697;28;20202;-81
2022/05/15 07:12:15;;;;;;;2.42;2.00;;;;;;;;;;5042976;28;20199;-79
2022/05/15 07:14:43;;;;;;;4.30;2.05;;;;;;;;;;5041678;28;20670;-81
2022/05/15 07:17:10;;;;;;;5.93;3.25;;;;;;;;;;5041586;28;20287;-80
2022/05/15 07:19:38;;;;;;;4.63;2.30;;;;;;;;;;5042009;28;20200;-80
2022/05/15 07:22:06;;;;;;;3.30;2.42;;;;;;;;;;5040817;28;20203;-81
2022/05/15 07:24:33;;;;;;;4.20;1.83;;;;;;;;;;5040845;28;20199;-82
2022/05/15 07:27:00;;;;;;;5.40;2.83;;;;;;;;;;5039729;28;20485;-82
2022/05/15 07:29:28;;;;;;;2.90;2.60;;;;;;;;;;5037091;28;20205;-79
2022/05/15 07:31:56;;;;;;;6.73;2.30;;;;;;;;;;5035564;28;20466;-80
2022/05/15 07:34:24;;;;;;;3.50;2.45;;;;;;;;;;5039620;28;20964;-81
2022/05/15 07:36:52;;;;;;;5.40;2.47;;;;;;;;;;5044275;28;20211;-81
2022/05/15 07:39:20;;;;;;;4.23;2.27;;;;;;;;;;5036306;28;20476;-80
2022/05/15 07:41:47;;;;;;;5.60;3.57;;;;;;;;;;5036794;28;20501;-79
2022/05/15 07:44:14;;;;;;;7.63;2.40;;;;;;;;;;5037360;28;20844;-81
2022/05/15 07:46:42;;;;;;;5.30;2.37;;;;;;;;;;5037476;28;20451;-82
2022/05/15 07:49:09;;;;;;;4.93;2.30;;;;;;;;;;5035857;28;20479;-79
2022/05/15 07:51:37;;;;;;;3.50;1.97;;;;;;;;;;5040953;28;20997;-79
2022/05/15 07:54:05;;;;;;;3.80;2.25;;;;;;;;;;5045096;28;20863;-79
2022/05/15 07:56:32;;;;;;;6.83;2.30;;;;;;;;;;5045264;28;20213;-80
2022/05/15 07:59:00;;;;;;;4.37;1.83;;;;;;;;;;5047019;28;20972;-80
2022/05/15 08:01:27;;;;;;;3.87;1.60;;;;;;;;;;5043546;28;20456;-80
2022/05/15 08:03:54;;;;;;;3.20;2.30;;;;;;;;;;5041561;28;20457;-79
2022/05/15 08:09:08;;;;;;;5.37;2.90;;;;;;;;;;5043820;28;20477;-79
2022/05/15 08:11:36;;;;;;;5.03;2.33;;;;;;;;;;5043724;28;20474;-79
2022/05/15 08:14:04;;;;;;;3.70;2.23;;;;;;;;;;5049489;28;20460;-79
2022/05/15 08:16:35;;;;;;;3.07;2.00;;;;;;;;;;5038302;28;20465;-78
2022/05/15 08:24:33;;;;;;;3.93;2.63;;;;;;;;;;5042646;28;20457;-79
2022/05/15 08:27:00;;;;;;;2.73;2.10;;;;;;;;;;5037344;28;20511;-79
2022/05/15 08:29:27;;;;;;;2.53;2.00;;;;;;;;;;5046932;28;20995;-79
2022/05/15 08:31:54;;;;;;;6.17;3.20;;;;;;;;;;5037190;28;20482;-79
2022/05/15 08:34:22;;;;;;;4.93;2.53;;;;;;;;;;5036636;28;20546;-79
2022/05/15 08:36:49;;;;;;;6.20;2.20;;;;;;;;;;5045362;28;20465;-78
2022/05/15 08:39:16;;;;;;;6.57;2.60;;;;;;;;;;5039416;28;20459;-79
2022/05/15 08:41:48;;;;;;;4.60;2.93;;;;;;;;;;5045964;28;20491;-79
2022/05/15 08:44:18;;;;;;;4.50;2.20;;;;;;;;;;5043442;28;20460;-79
2022/05/15 08:47:00;;;;;;;3.97;2.57;;;;;;;;;;5030304;28;20464;-78
2022/05/15 08:49:29;;;;;;;4.80;2.87;;;;;;;;;;5041303;28;20485;-79
2022/05/15 08:51:57;;;;;;;5.13;2.97;;;;;;;;;;5041943;28;20814;-80
2022/05/15 08:54:26;;;;;;;4.83;2.10;;;;;;;;;;5048487;28;21000;-78
2022/05/15 08:56:55;;;;;;;4.33;2.10;;;;;;;;;;5049539;28;20468;-81
2022/05/15 08:59:24;;;;;;;6.53;2.10;;;;;;;;;;5039591;28;20822;-79
2022/05/15 09:01:52;;;;;;;5.10;2.17;;;;;;;;;;5041149;28;20467;-80
2022/05/15 09:04:19;;;;;;;6.47;2.30;;;;;;;;;;5043119;28;20464;-79
2022/05/15 09:06:50;;;;;;;4.40;2.30;;;;;;;;;;5043273;28;20468;-82
2022/05/15 09:09:23;;;;;;;3.33;2.13;;;;;;;;;;5041786;28;20570;-80
2022/05/15 09:11:56;;;;;;;5.33;2.40;;;;;;;;;;5034927;28;20980;-79
2022/05/15 09:14:32;;;;;;;10.37;2.93;;;;;;;;;;5035522;28;20880;-82
2022/05/15 09:17:01;;;;;;;5.27;2.70;;;;;;;;;;5044704;28;20832;-78
2022/05/15 09:19:29;;;;;;;4.90;1.90;;;;;;;;;;5032223;28;20460;-79
2022/05/15 09:21:57;;;;;;;6.27;2.43;;;;;;;;;;5037118;28;20469;-81
2022/05/15 09:24:33;;;;;;;5.47;2.50;;;;;;;;;;5034601;28;20828;-81
2022/05/15 09:27:13;;;;;;;7.30;2.37;;;;;;;;;;5044683;28;20455;-79
2022/05/15 09:29:40;;;;;;;4.67;1.80;;;;;;;;;;5044729;28;20548;-80
2022/05/15 09:32:16;;;;;;;4.60;2.30;;;;;;;;;;5037213;28;20455;-78
2022/05/15 09:34:44;;;;;;;4.60;2.80;;;;;;;;;;5047889;28;20835;-81
2022/05/15 09:40:04;;;;;;;3.60;1.87;;;;;;;;;;5033995;28;20514;-80
2022/05/15 09:45:19;;;;;;;3.67;2.50;;;;;;;;;;5023898;28;20481;-82
2022/05/15 09:47:47;;;;;;;7.20;2.40;;;;;;;;;;5029884;28;20467;-79
2022/05/15 09:50:29;;;;;;;3.23;2.10;;;;;;;;;;5046574;28;20444;-80
2022/05/15 09:52:57;;;;;;;9.03;2.37;;;;;;;;;;5051093;28;21002;-78
2022/05/15 09:55:27;;;;;;;5.43;2.43;;;;;;;;;;5044841;28;20963;-79
2022/05/15 09:57:57;;;;;;;3.80;2.60;;;;;;;;;;5044350;28;20471;-79
2022/05/15 10:00:25;;;;;;;5.63;2.43;;;;;;;;;;5034030;28;20841;-79
2022/05/15 10:02:53;;;;;;;7.20;3.03;;;;;;;;;;5039805;28;21328;-79
2022/05/15 10:05:22;;;;;;;3.03;1.60;;;;;;;;;;5043906;28;20463;-79
2022/05/15 10:07:58;;;;;;;7.30;2.23;;;;;;;;;;5048115;28;20467;-79
2022/05/15 10:10:26;;;;;;;4.37;2.37;;;;;;;;;;5031008;28;20548;-79
2022/05/15 10:12:56;;;;;;;4.00;2.30;;;;;;;;;;5040666;28;20464;-80
2022/05/15 10:15:26;;;;;;;13.80;3.00;;;;;;;;;;5044685;28;20232;-80
2022/05/15 10:17:55;;;;;;;2.83;2.20;;;;;;;;;;5039523;28;20467;-79
2022/05/15 10:20:24;;;;;;;6.73;2.30;;;;;;;;;;5033397;28;20465;-79
2022/05/15 10:22:55;;;;;;;5.90;2.90;;;;;;;;;;5040847;28;20536;-80
2022/05/15 10:25:25;;;;;;;6.47;2.27;;;;;;;;;;5048789;28;20463;-79
2022/05/15 10:27:55;;;;;;;7.53;2.53;;;;;;;;;;5040154;28;20545;-79
2022/05/15 10:30:26;;;;;;;3.53;1.90;;;;;;;;;;5035143;28;20496;-79
2022/05/15 10:32:57;;;;;;;3.63;1.80;;;;;;;;;;5037786;28;20661;-80
2022/05/15 10:35:29;;;;;;;5.40;2.10;;;;;;;;;;5037773;28;20454;-81
2022/05/15 10:38:07;;;;;;;3.37;1.97;;;;;;;;;;5043445;28;20969;-81
2022/05/15 10:40:37;;;;;;;5.53;2.43;;;;;;;;;;5034073;28;20626;-79
2022/05/15 10:43:10;;;;;;;3.30;2.10;;;;;;;;;;5042354;28;20472;-77
2022/05/15 10:45:42;;;;;;;4.13;2.23;;;;;;;;;;5037478;28;20456;-79
2022/05/15 10:48:32;;;;;;;4.70;2.10;;;;;;;;;;5043482;28;20455;-79
2022/05/15 10:51:01;;;;;;;3.92;2.03;;;;;;;;;;5040510;28;20548;-80
2022/05/15 10:59:22;;;;;;;8.60;3.60;;;;;;;;;;5038330;28;21033;-80
2022/05/15 11:01:54;;;;;;;3.00;2.10;;;;;;;;;;5034158;28;20456;-80
2022/05/15 11:04:25;;;;;;;4.70;2.20;;;;;;;;;;5036485;28;20466;-80
2022/05/15 11:07:00;;;;;;;6.10;2.60;;;;;;;;;;5049088;28;20690;-79
2022/05/15 11:09:33;;;;;;;4.40;1.90;;;;;;;;;;5042931;28;20506;-80
2022/05/15 11:12:10;;;;;;;2.60;2.20;;;;;;;;;;5038561;28;20467;-79
2022/05/15 11:14:40;;;;;;;3.90;2.60;;;;;;;;;;5045641;28;20576;-80
2022/05/15 11:17:15;;;;;;;4.90;2.10;;;;;;;;;;5038679;28;20470;-80
2022/05/15 11:19:44;;;;;;;3.10;1.90;;;;;;;;;;5041690;28;20206;-80
2022/05/15 11:22:23;;;;;;;4.67;2.17;;;;;;;;;;5049185;28;21014;-81
2022/05/15 11:24:55;;;;;;;4.40;2.30;;;;;;;;;;5037455;28;20997;-80
2022/05/15 11:27:25;;;;;;;3.97;1.70;;;;;;;;;;5037128;28;20512;-80
2022/05/15 11:29:53;;;;;;;5.70;2.90;;;;;;;;;;5027911;28;20494;-79
2022/05/15 11:32:29;;;;;;;6.27;1.90;;;;;;;;;;5036374;28;20466;-79
2022/05/15 11:35:05;;;;;;;3.23;2.30;;;;;;;;;;5037528;28;21568;-80
2022/05/15 11:37:46;;;;;;;5.40;1.97;;;;;;;;;;5037986;28;20998;-80
2022/05/15 11:40:29;;;;;;;2.90;1.70;;;;;;;;;;5030145;28;20456;-79
2022/05/15 11:42:56;;;;;;;4.57;1.97;;;;;;;;;;5036368;28;20574;-81
2022/05/15 11:45:38;;;;;;;4.27;2.00;;;;;;;;;;5032587;28;20469;-81
2022/05/15 11:48:16;;;;;;;4.53;1.90;;;;;;;;;;5036389;28;20464;-80
2022/05/15 11:50:51;;;;;;;6.40;2.60;;;;;;;;;;5042502;28;20446;-80
2022/05/15 11:53:25;;;;;;;3.90;2.13;;;;;;;;;;5049315;28;20201;-80
2022/05/15 11:55:52;;;;;;;4.30;2.25;;;;;;;;;;5047127;28;20461;-82
2022/05/15 11:58:26;;;;;;;4.80;2.27;;;;;;;;;;5042933;28;20263;-81
2022/05/15 12:01:04;;;;;;;3.63;1.97;;;;;;;;;;5043450;28;20568;-82
2022/05/15 12:03:46;;;;;;;3.10;2.20;;;;;;;;;;5032287;28;20459;-80
2022/05/15 12:06:16;;;;;;;6.03;1.90;;;;;;;;;;5034245;28;20205;-81
2022/05/15 12:08:44;;;;;;;5.23;2.00;;;;;;;;;;5047765;28;20243;-81
2022/05/15 12:11:28;;;;;;;5.67;2.37;;;;;;;;;;5040872;28;20449;-82
2022/05/15 12:13:57;;;;;;;5.13;1.67;;;;;;;;;;5034594;28;20548;-80
2022/05/15 12:16:26;;;;;;;2.30;2.00;;;;;;;;;;5033054;28;20466;-80
2022/05/15 12:18:59;;;;;;;3.17;2.25;;;;;;;;;;5041581;28;20464;-80
2022/05/15 12:21:31;;;;;;;3.83;2.20;;;;;;;;;;5038796;28;20211;-80
2022/05/15 12:26:48;;;;;;;2.03;1.50;;;;;;;;;;5039032;28;20741;-79
2022/05/15 12:29:29;;;;;;;3.20;1.57;;;;;;;;;;5042411;28;20539;-80
2022/05/15 12:31:56;;;;;;;5.37;2.83;;;;;;;;;;5039937;28;20913;-79
2022/05/15 12:34:28;;;;;;;2.75;1.92;;;;;;;;;;5036076;28;20460;-81
2022/05/15 12:36:57;;;;;;;3.73;1.93;;;;;;;;;;5038405;28;20233;-80
2022/05/15 12:39:26;;;;;;;3.75;1.98;;;;;;;;;;5036472;28;20476;-80
2022/05/15 12:41:53;;;;;;;4.60;2.10;;;;;;;;;;5034481;28;20496;-79
2022/05/15 12:44:31;;;;;;;3.13;2.08;;;;;;;;;;5035439;28;20192;-80
2022/05/15 12:46:59;;;;;;;2.10;1.90;;;;;;;;;;5034076;28;20210;-80
2022/05/15 12:49:31;;;;;;;3.92;1.85;;;;;;;;;;5037063;28;20489;-81
2022/05/15 12:52:09;;;;;;;3.38;2.15;;;;;;;;;;5034504;28;20214;-80
2022/05/15 12:54:37;;;;;;;2.53;1.35;;;;;;;;;;5038419;28;20241;-80
2022/05/15 12:57:06;;;;;;;3.00;1.40;;;;;;;;;;5036440;28;20742;-80
2022/05/15 12:59:36;;;;;;;4.55;2.00;;;;;;;;;;5042760;28;20984;-81
2022/05/15 13:02:14;;;;;;;3.10;2.17;;;;;;;;;;5036204;28;20197;-81
2022/05/15 13:04:47;;;;;;;3.20;2.00;;;;;;;;;;5041041;28;20211;-81
2022/05/15 13:07:14;;;;;;;3.03;1.70;;;;;;;;;;5040933;28;20829;-80
2022/05/15 13:09:43;;;;;;;7.80;2.33;;;;;;;;;;5044384;28;20477;-82
2022/05/15 13:12:15;;;;;;;3.92;1.80;;;;;;;;;;5035493;28;20210;-80
2022/05/15 13:14:46;;;;;;;3.03;1.80;;;;;;;;;;5038129;28;20889;-79
2022/05/15 13:17:14;;;;;;;3.70;1.50;;;;;;;;;;5040150;28;20820;-81
2022/05/15 13:19:43;;;;;;;1.90;1.27;;;;;;;;;;5043832;28;20920;-80
2022/05/15 13:22:14;;;;;;;3.80;1.60;;;;;;;;;;5045302;28;20459;-81
2022/05/15 13:24:41;;;;;;;5.45;2.17;;;;;;;;;;5049763;28;20191;-80
2022/05/15 13:27:09;;;;;;;3.65;2.20;;;;;;;;;;5043069;28;20575;-83
2022/05/15 13:29:37;;;;;;;6.87;2.13;;;;;;;;;;5052726;28;20250;-81
2022/05/15 13:32:05;;;;;;;2.87;1.90;;;;;;;;;;5043609;28;20458;-83
2022/05/15 13:34:32;;;;;;;9.13;2.00;;;;;;;;;;5048801;28;20465;-81
2022/05/15 13:37:00;;;;;;;3.73;2.37;;;;;;;;;;5050077;28;20940;-81
2022/05/15 13:45:07;;;;;;;5.60;1.85;;;;;;;;;;5044010;28;20452;-80
2022/05/15 13:47:35;;;;;;;4.23;2.10;;;;;;;;;;5044535;28;20210;-82
2022/05/15 13:50:02;;;;;;;2.03;1.80;;;;;;;;;;5047089;28;20478;-84
2022/05/15 13:52:31;;;;;;;4.90;2.07;;;;;;;;;;5039321;28;20466;-82
2022/05/15 13:55:00;;;;;;;6.63;2.10;;;;;;;;;;5045459;28;20461;-80
2022/05/15 13:57:28;;;;;;;5.13;2.17;;;;;;;;;;5040500;28;20481;-83
2022/05/15 14:00:11;;;;;;;4.33;2.03;;;;;;;;;;5050084;28;20293;-79
2022/05/15 14:02:54;;;;;;;4.90;1.87;;;;;;;;;;5043090;28;20484;-80
2022/05/15 14:05:22;;;;;;;3.40;1.80;;;;;;;;;;5040589;28;20461;-81
2022/05/15 14:07:49;;;;;;;4.43;1.75;;;;;;;;;;5040953;28;20187;-82
2022/05/15 14:10:19;;;;;;;4.40;1.80;;;;;;;;;;5039704;28;20689;-79
2022/05/15 14:12:48;;;;;;;3.30;1.80;;;;;;;;;;5037673;28;20469;-83
2022/05/15 14:15:33;;;;;;;5.33;1.87;;;;;;;;;;5043783;28;20525;-81
2022/05/15 14:18:01;;;;;;;5.20;1.70;;;;;;;;;;5050232;28;20460;-82
2022/05/15 14:20:30;;;;;;;4.30;1.95;;;;;;;;;;5051059;28;20456;-82
2022/05/15 14:22:57;;;;;;;4.40;1.93;;;;;;;;;;5038407;28;20209;-81
2022/05/15 14:25:26;;;;;;;4.40;2.10;;;;;;;;;;5050311;28;20515;-82
2022/05/15 14:27:53;;;;;;;3.90;1.90;;;;;;;;;;5047219;28;20466;-84
2022/05/15 14:30:20;;;;;;;8.03;2.30;;;;;;;;;;5043652;28;20474;-82
2022/05/15 14:32:51;;;;;;;4.10;2.58;;;;;;;;;;5041598;28;20458;-85
2022/05/15 14:35:20;;;;;;;2.30;1.50;;;;;;;;;;5048972;28;20205;-86
2022/05/15 14:37:47;;;;;;;4.40;2.03;;;;;;;;;;5038306;28;20474;-82
2022/05/15 14:40:14;;;;;;;7.23;2.97;;;;;;;;;;5039353;28;20448;-81
2022/05/15 14:42:43;;;;;;;7.10;2.78;;;;;;;;;;5049476;28;20493;-82
2022/05/15 14:45:17;;;;;;;2.80;1.80;;;;;;;;;;5043967;28;20301;-82
2022/05/15 14:47:45;;;;;;;3.40;2.30;;;;;;;;;;5046154;28;20446;-83
2022/05/15 14:50:12;;;;;;;3.42;2.10;;;;;;;;;;5051311;28;20478;-82
2022/05/15 14:52:39;;;;;;;4.00;2.03;;;;;;;;;;5052626;28;20582;-83
2022/05/15 14:55:07;;;;;;;2.43;1.83;;;;;;;;;;5044358;28;20457;-81
2022/05/15 14:57:35;;;;;;;2.87;2.17;;;;;;;;;;5051782;28;20555;-82
2022/05/15 15:00:05;;;;;;;3.93;1.90;;;;;;;;;;5044315;28;20461;-80
2022/05/15 15:02:34;;;;;;;5.33;2.17;;;;;;;;;;5042160;28;20463;-81
2022/05/15 15:05:01;;;;;;;2.57;2.20;;;;;;;;;;5048012;28;20485;-81
2022/05/15 15:07:28;;;;;;;5.73;2.60;;;;;;;;;;5049176;28;20523;-82
2022/05/15 15:09:55;;;;;;;3.50;2.10;;;;;;;;;;5044090;28;20490;-83
2022/05/15 15:12:24;;;;;;;3.30;1.80;;;;;;;;;;5043835;28;21114;-80
2022/05/15 15:14:51;;;;;;;3.27;1.80;;;;;;;;;;5041878;28;20458;-84
2022/05/15 15:17:19;;;;;;;4.00;2.00;;;;;;;;;;5037733;28;20553;-83
2022/05/15 15:19:46;;;;;;;3.60;2.37;;;;;;;;;;5042698;28;20456;-81
2022/05/15 15:22:13;;;;;;;5.03;3.27;;;;;;;;;;5033505;28;20473;-85
2022/05/15 15:24:40;;;;;;;3.03;1.90;;;;;;;;;;5038690;28;20467;-79
2022/05/15 15:27:07;;;;;;;4.73;2.67;;;;;;;;;;5036896;28;20459;-83